createdAt,value
2023-05-03T00:00:35.897Z,7.30
2023-05-03T00:05:40.041Z,7.30
2023-05-03T00:10:45.393Z,7.10
2023-05-03T00:15:49.073Z,6.90
2023-05-03T00:20:55.050Z,6.90
2023-05-03T00:26:00.731Z,6.80
2023-05-03T00:31:10.611Z,6.80
2023-05-03T00:36:15.438Z,6.70
2023-05-03T00:41:20.173Z,6.50
2023-05-03T00:46:23.529Z,6.50
2023-05-03T00:51:28.860Z,6.30
2023-05-03T00:56:47.878Z,6.10
2023-05-03T01:01:55.340Z,6.00
2023-05-03T01:07:10.829Z,5.80
2023-05-03T01:12:25.309Z,5.60
2023-05-03T01:17:31.573Z,5.60
2023-05-03T01:22:44.142Z,5.50
2023-05-03T01:27:49.169Z,5.50
2023-05-03T01:33:01.583Z,5.40
2023-05-03T01:38:06.528Z,5.20
2023-05-03T01:43:13.753Z,5.20
2023-05-03T01:48:18.773Z,5.20
2023-05-03T01:53:22.565Z,5.30
2023-05-03T01:58:27.776Z,5.50
2023-05-03T02:03:31.408Z,5.60
2023-05-03T02:08:35.120Z,5.70
2023-05-03T02:13:40.627Z,5.80
2023-05-03T02:18:44.967Z,5.80
2023-05-03T02:23:48.258Z,5.80
2023-05-03T02:28:52.962Z,5.60
2023-05-03T02:33:56.732Z,5.60
2023-05-03T02:39:00.450Z,5.50
2023-05-03T02:44:05.768Z,5.50
2023-05-03T02:49:09.776Z,5.50
2023-05-03T02:54:13.069Z,5.50
2023-05-03T02:59:17.879Z,5.60
2023-05-03T03:04:21.272Z,5.60
2023-05-03T03:09:24.612Z,5.50
2023-05-03T03:14:29.651Z,5.50
2023-05-03T03:19:33.058Z,5.50
2023-05-03T03:24:38.659Z,5.50
2023-05-03T03:29:43.816Z,5.50
2023-05-03T03:34:49.982Z,5.40
2023-05-03T03:39:54.426Z,5.30
2023-05-03T03:45:00.339Z,5.30
2023-05-03T03:50:04.235Z,5.20
2023-05-03T03:55:09.764Z,5.30
2023-05-03T04:00:16.203Z,5.30
2023-05-03T04:05:25.979Z,5.30
2023-05-03T04:10:30.807Z,5.30
2023-05-03T04:15:35.847Z,5.40
2023-05-03T04:20:41.318Z,5.50
2023-05-03T04:25:48.986Z,5.60
2023-05-03T04:30:59.210Z,5.60
2023-05-03T04:36:04.662Z,5.70
2023-05-03T04:41:09.242Z,5.90
2023-05-03T04:46:15.672Z,6.00
2023-05-03T04:51:19.033Z,6.10
2023-05-03T04:56:26.427Z,6.40
2023-05-03T05:01:37.096Z,6.40
2023-05-03T05:06:42.780Z,6.30
2023-05-03T05:11:50.525Z,6.10
2023-05-03T05:16:55.948Z,6.20
2023-05-03T05:21:59.392Z,6.20
2023-05-03T05:27:12.871Z,6.20
2023-05-03T05:32:17.944Z,6.10
2023-05-03T05:37:21.482Z,6.20
2023-05-03T05:42:25.572Z,6.20
2023-05-03T05:47:30.495Z,6.30
2023-05-03T05:52:35.477Z,6.40
2023-05-03T05:57:40.582Z,6.50
2023-05-03T06:02:46.783Z,6.60
2023-05-03T06:07:54.419Z,6.70
2023-05-03T06:12:58.629Z,6.80
2023-05-03T06:18:05.682Z,6.90
2023-05-03T06:23:09.396Z,7.10
2023-05-03T06:28:14.280Z,7.40
2023-05-03T06:33:19.349Z,7.50
2023-05-03T06:38:26.905Z,7.60
2023-05-03T06:43:30.683Z,7.70
2023-05-03T06:48:40.381Z,7.80
2023-05-03T06:53:43.655Z,7.90
2023-05-03T06:58:46.831Z,8.10
2023-05-03T07:03:51.629Z,8.20
2023-05-03T07:08:55.372Z,8.30
2023-05-03T07:13:58.605Z,8.50
2023-05-03T07:19:03.304Z,8.60
2023-05-03T07:24:07.948Z,8.90
2023-05-03T07:29:11.551Z,9.10
2023-05-03T07:34:16.463Z,9.20
2023-05-03T07:39:19.800Z,9.30
2023-05-03T07:44:23.886Z,9.30
2023-05-03T07:49:28.959Z,9.30
2023-05-03T07:54:32.700Z,9.50
2023-05-03T07:59:36.307Z,9.70
2023-05-03T08:04:41.668Z,9.80
2023-05-03T08:09:45.333Z,10.00
2023-05-03T08:14:49.065Z,10.30
2023-05-03T08:19:56.568Z,10.60
2023-05-03T08:25:00.612Z,10.80
2023-05-03T08:30:05.428Z,11.00
2023-05-03T08:35:13.873Z,10.90
2023-05-03T08:40:17.144Z,11.00
2023-05-03T08:45:20.402Z,11.10
2023-05-03T08:50:27.045Z,11.20
2023-05-03T08:55:30.283Z,11.10
2023-05-03T09:00:33.567Z,11.10
2023-05-03T09:05:41.424Z,11.50
2023-05-03T09:10:44.794Z,12.00
2023-05-03T09:15:55.381Z,12.40
2023-05-03T09:21:00.180Z,12.20
2023-05-03T09:26:03.572Z,12.20
2023-05-03T09:31:10.178Z,12.40
2023-05-03T09:36:15.923Z,12.50
2023-05-03T09:41:28.986Z,12.50
2023-05-03T09:46:33.318Z,12.90
2023-05-03T09:51:41.301Z,13.30
2023-05-03T09:56:47.295Z,13.30
2023-05-03T10:01:51.959Z,12.60
2023-05-03T10:07:00.878Z,12.30
2023-05-03T10:12:08.341Z,12.60
2023-05-03T10:17:17.899Z,12.90
2023-05-03T10:22:22.745Z,12.90
2023-05-03T10:27:26.212Z,12.80
2023-05-03T10:32:34.452Z,12.50
2023-05-03T10:37:42.521Z,12.30
2023-05-03T10:42:46.994Z,12.60
2023-05-03T10:48:20.824Z,12.80
2023-05-03T10:53:40.600Z,13.10
2023-05-03T10:58:45.702Z,12.70
2023-05-03T11:03:57.066Z,12.60
2023-05-03T11:09:04.156Z,12.60
2023-05-03T11:14:07.538Z,12.80
2023-05-03T11:19:11.598Z,13.10
2023-05-03T11:24:16.220Z,12.90
2023-05-03T11:29:21.053Z,12.80
2023-05-03T11:34:25.064Z,12.80
2023-05-03T11:39:30.725Z,13.00
2023-05-03T11:44:34.051Z,13.00
2023-05-03T11:49:37.317Z,13.00
2023-05-03T11:54:41.901Z,13.10
2023-05-03T11:59:45.736Z,13.20
2023-05-03T12:04:49.265Z,12.90
2023-05-03T12:10:06.340Z,12.80
2023-05-03T12:15:27.762Z,12.80
2023-05-03T12:25:42.873Z,12.90
2023-05-03T12:30:48.024Z,13.00
2023-05-03T12:35:53.341Z,12.90
2023-05-03T12:40:58.914Z,13.00
2023-05-03T12:46:25.187Z,13.10
2023-05-03T12:51:27.920Z,13.10
2023-05-03T12:56:39.403Z,13.30
2023-05-03T13:06:57.882Z,13.70
2023-05-03T13:12:04.330Z,13.80
2023-05-03T13:17:08.337Z,13.70
2023-05-03T13:22:13.297Z,13.80
2023-05-03T13:27:18.954Z,13.70
2023-05-03T13:32:22.992Z,13.70
2023-05-03T13:37:27.100Z,13.70
2023-05-03T13:42:31.783Z,13.80
2023-05-03T13:47:59.989Z,13.90
2023-05-03T13:52:58.621Z,13.90
2023-05-03T13:58:03.650Z,14.00
2023-05-03T14:03:07.845Z,14.20
2023-05-03T14:08:11.325Z,14.30
2023-05-03T14:13:16.443Z,14.60
2023-05-03T14:18:19.909Z,14.50
2023-05-03T14:23:24.490Z,14.50
2023-05-03T14:28:29.118Z,14.70
2023-05-03T14:33:32.794Z,14.70
2023-05-03T14:38:35.991Z,14.70
2023-05-03T14:43:40.592Z,14.60
2023-05-03T14:48:43.811Z,14.50
2023-05-03T14:53:47.029Z,14.40
2023-05-03T14:58:51.817Z,14.40
2023-05-03T15:03:54.998Z,14.40
2023-05-03T15:08:58.275Z,14.30
2023-05-03T15:14:02.991Z,14.20
2023-05-03T15:19:07.422Z,14.10
2023-05-03T15:24:11.129Z,14.30
2023-05-03T15:29:16.481Z,14.40
2023-05-03T15:34:19.916Z,14.50
2023-05-03T15:39:24.577Z,14.50
2023-05-03T15:44:29.519Z,14.50
2023-05-03T15:49:33.113Z,14.70
2023-05-03T15:54:36.695Z,14.70
2023-05-03T15:59:41.660Z,14.70
2023-05-03T16:04:45.698Z,14.80
2023-05-03T16:09:49.651Z,14.80
2023-05-03T16:14:55.623Z,14.90
2023-05-03T16:19:58.818Z,15.00
2023-05-03T16:25:02.081Z,15.30
2023-05-03T16:30:08.131Z,15.60
2023-05-03T16:35:11.754Z,16.00
2023-05-03T16:40:15.088Z,16.40
2023-05-03T16:45:20.317Z,16.90
2023-05-03T16:50:23.980Z,17.20
2023-05-03T16:55:27.750Z,17.80
2023-05-03T17:00:33.208Z,18.10
2023-05-03T17:05:36.973Z,18.20
2023-05-03T17:10:40.581Z,18.50
2023-05-03T17:15:45.562Z,18.40
2023-05-03T17:20:48.928Z,18.30
2023-05-03T17:25:59.057Z,18.50
2023-05-03T17:31:04.690Z,18.20
2023-05-03T17:36:08.473Z,18.00
2023-05-03T17:41:12.665Z,18.00
2023-05-03T17:46:18.110Z,18.10
2023-05-03T17:51:22.130Z,17.90
2023-05-03T17:56:25.938Z,17.60
2023-05-03T18:01:30.637Z,17.60
2023-05-03T18:06:34.601Z,17.10
2023-05-03T18:11:38.272Z,16.60
2023-05-03T18:16:43.907Z,15.80
2023-05-03T18:21:47.758Z,15.20
2023-05-03T18:26:51.378Z,14.60
2023-05-03T18:31:57.739Z,14.10
2023-05-03T18:37:01.426Z,13.60
2023-05-03T18:42:05.155Z,13.30
2023-05-03T18:47:13.337Z,13.00
2023-05-03T18:52:17.125Z,12.70
2023-05-03T18:57:22.699Z,12.40
2023-05-03T19:02:31.463Z,12.00
2023-05-03T19:07:35.512Z,11.80
2023-05-03T19:12:40.776Z,11.60
2023-05-03T19:17:47.368Z,11.50
2023-05-03T19:22:51.008Z,11.40
2023-05-03T19:27:54.589Z,11.20
2023-05-03T19:32:59.438Z,11.20
2023-05-03T19:38:02.950Z,11.00
2023-05-03T19:43:07.303Z,10.90
2023-05-03T19:48:13.244Z,10.60
2023-05-03T19:53:18.417Z,10.50
2023-05-03T19:58:22.619Z,10.50
2023-05-03T20:03:27.633Z,10.40
2023-05-03T20:08:32.530Z,10.40
2023-05-03T20:13:35.864Z,10.40
2023-05-03T20:18:40.739Z,10.40
2023-05-03T20:23:44.028Z,10.20
2023-05-03T20:28:47.495Z,10.10
2023-05-03T20:33:52.268Z,9.90
2023-05-03T20:38:55.804Z,9.70
2023-05-03T20:43:59.605Z,9.70
2023-05-03T20:49:05.329Z,9.60
2023-05-03T20:54:09.008Z,9.50
2023-05-03T20:59:12.303Z,9.30
2023-05-03T21:04:16.867Z,9.20
2023-05-03T21:09:20.296Z,9.10
2023-05-03T21:14:23.508Z,9.00
2023-05-03T21:19:28.602Z,8.90
2023-05-03T21:24:32.024Z,8.90
2023-05-03T21:29:35.251Z,8.90
2023-05-03T21:34:39.794Z,8.90
2023-05-03T21:39:47.845Z,8.90
2023-05-03T21:44:57.691Z,8.80
2023-05-03T21:50:03.150Z,8.90
2023-05-03T21:55:06.920Z,8.80
2023-05-03T22:00:16.791Z,8.70
2023-05-03T22:05:21.842Z,8.60
2023-05-03T22:10:25.074Z,8.40
2023-05-03T22:15:28.377Z,8.40
2023-05-03T22:20:32.993Z,8.60
2023-05-03T22:25:36.307Z,8.50
2023-05-03T22:30:39.496Z,8.50
2023-05-03T22:35:44.142Z,8.40
2023-05-03T22:40:47.349Z,8.30
2023-05-03T22:45:50.521Z,8.40
2023-05-03T22:50:55.221Z,8.30
2023-05-03T22:55:58.892Z,8.30
2023-05-03T23:01:02.115Z,8.40
2023-05-03T23:06:07.282Z,8.40
2023-05-03T23:11:10.645Z,8.20
2023-05-03T23:16:14.654Z,7.90
2023-05-03T23:21:19.662Z,7.70
2023-05-03T23:26:23.284Z,7.50
2023-05-03T23:31:28.574Z,7.30
2023-05-03T23:36:36.702Z,7.20
2023-05-03T23:41:40.312Z,7.20
2023-05-03T23:46:43.997Z,7.40
2023-05-03T23:51:48.998Z,7.30
2023-05-03T23:56:53.003Z,7.30
